Time;durP1;ratioP1;P1;durP2;ratioP2;P2;SDS_P1;SDS_P2;PMS_P1;PMS_P2;Temp;Humidity;BMP_temperature;BMP_pressure;BME280_temperature;BME280_humidity;BME280_pressure;Samples;Min_cycle;Max_cycle;Signal;HPM_P1;HPM_P2
2021/10/31 00:02:09;;;;;;;16.83;13.60;;;10.10;99.90;;;;;;6232311;23;20502;-92
2021/10/31 00:04:35;;;;;;;16.97;15.37;;;10.00;99.90;;;;;;6236602;23;20394;-91
2021/10/31 00:07:01;;;;;;;15.57;14.03;;;9.90;99.90;;;;;;6238746;23;20173;-92
2021/10/31 00:09:26;;;;;;;18.07;15.33;;;9.90;99.90;;;;;;6232761;23;20191;-91
2021/10/31 00:11:52;;;;;;;15.40;13.90;;;9.90;99.90;;;;;;6232147;23;20759;-92
2021/10/31 00:14:18;;;;;;;16.67;14.87;;;9.90;99.90;;;;;;6231883;23;20237;-92
2021/10/31 00:16:43;;;;;;;17.60;15.80;;;9.90;99.90;;;;;;6232261;23;20190;-92
2021/10/31 00:19:09;;;;;;;15.10;13.60;;;9.90;99.90;;;;;;6231231;23;20970;-91
2021/10/31 00:21:35;;;;;;;15.03;13.53;;;10.00;99.90;;;;;;6233086;23;20602;-93
2021/10/31 00:24:01;;;;;;;15.47;13.97;;;10.00;99.90;;;;;;6231060;23;20896;-92
2021/10/31 00:26:27;;;;;;;15.60;14.03;;;10.00;99.90;;;;;;6232678;23;20163;-93
2021/10/31 00:28:52;;;;;;;15.10;13.60;;;10.00;99.90;;;;;;6235349;23;20205;-93
2021/10/31 00:31:18;;;;;;;15.47;13.87;;;10.10;99.90;;;;;;6230206;23;20162;-92
2021/10/31 00:33:46;;;;;;;16.10;14.47;;;10.10;99.90;;;;;;6231823;23;20560;-91
2021/10/31 00:36:12;;;;;;;15.30;13.80;;;10.10;99.90;;;;;;6230375;23;20215;-93
2021/10/31 00:38:37;;;;;;;17.07;14.60;;;10.20;99.90;;;;;;6232249;23;20621;-92
2021/10/31 00:41:03;;;;;;;15.00;12.87;;;10.20;99.90;;;;;;6231614;23;20224;-92
2021/10/31 00:43:30;;;;;;;13.30;11.90;;;10.30;99.90;;;;;;6232141;23;20159;-92
2021/10/31 00:45:55;;;;;;;13.53;12.17;;;10.40;99.90;;;;;;6232428;23;20846;-92
2021/10/31 00:48:21;;;;;;;13.30;11.90;;;10.50;99.90;;;;;;6224611;23;20404;-91
2021/10/31 00:50:52;;;;;;;14.07;12.70;;;10.50;99.90;;;;;;6232609;23;20163;-92
2021/10/31 00:53:18;;;;;;;14.13;12.67;;;10.50;99.90;;;;;;6230121;23;20182;-92
2021/10/31 00:55:46;;;;;;;13.07;11.73;;;10.50;99.90;;;;;;6232323;23;20398;-92
2021/10/31 00:58:15;;;;;;;13.33;12.00;;;10.50;99.90;;;;;;6230501;23;20414;-91
2021/10/31 01:00:41;;;;;;;14.03;12.63;;;10.40;99.90;;;;;;6231000;23;20936;-91
2021/10/31 01:03:07;;;;;;;16.10;14.00;;;10.40;99.90;;;;;;6230844;23;20194;-91
2021/10/31 01:05:45;;;;;;;14.83;13.33;;;10.30;99.90;;;;;;6233655;22;20204;-91
2021/10/31 01:08:23;;;;;;;15.13;13.53;;;10.20;99.90;;;;;;6230616;23;20405;-92
2021/10/31 01:11:17;;;;;;;14.93;13.43;;;10.10;99.90;;;;;;6231278;23;20852;-92
2021/10/31 01:13:53;;;;;;;13.50;12.10;;;9.90;99.90;;;;;;6206127;23;20417;-90
2021/10/31 01:16:19;;;;;;;27.30;16.90;;;9.80;99.90;;;;;;6233020;23;20398;-91
2021/10/31 01:19:13;;;;;;;17.30;15.50;;;9.70;99.90;;;;;;6232045;23;20693;-91
2021/10/31 01:22:05;;;;;;;24.27;19.17;;;9.60;99.90;;;;;;6231771;23;20492;-91
2021/10/31 01:24:48;;;;;;;21.17;18.90;;;9.50;99.90;;;;;;6226843;23;20406;-91
2021/10/31 01:27:22;;;;;;;19.90;17.63;;;9.30;99.90;;;;;;6228370;23;20401;-92
2021/10/31 01:30:00;;;;;;;19.57;16.40;;;9.20;99.90;;;;;;6231814;23;20981;-92
2021/10/31 01:32:55;;;;;;;17.73;14.10;;;9.20;99.90;;;;;;6229767;23;20417;-92
2021/10/31 01:35:52;;;;;;;19.37;15.77;;;9.10;99.90;;;;;;6237251;23;20473;-92
2021/10/31 01:38:24;;;;;;;17.53;15.17;;;9.10;99.90;;;;;;6231174;23;20440;-92
2021/10/31 01:41:07;;;;;;;17.17;15.03;;;9.10;99.90;;;;;;6232397;22;20389;-93
2021/10/31 01:43:57;;;;;;;15.00;13.43;;;8.90;99.90;;;;;;6232330;23;20393;-92
2021/10/31 01:46:58;;;;;;;15.13;13.33;;;8.90;99.90;;;;;;6234084;23;20389;-91
2021/10/31 01:49:45;;;;;;;13.27;11.83;;;8.80;99.90;;;;;;6233043;23;20444;-93
2021/10/31 01:52:30;;;;;;;15.40;13.80;;;8.70;99.90;;;;;;6232984;23;20397;-91
2021/10/31 01:55:03;;;;;;;14.70;13.10;;;8.70;99.90;;;;;;6234000;23;20385;-93
2021/10/31 01:57:32;;;;;;;16.10;13.87;;;8.70;99.90;;;;;;6235471;22;20443;-94
2021/10/31 02:00:10;;;;;;;14.10;12.67;;;8.60;99.90;;;;;;6235391;23;20397;-92
2021/10/31 02:02:40;;;;;;;13.77;12.43;;;8.60;99.90;;;;;;6238456;23;20476;-94
2021/10/31 02:05:07;;;;;;;14.57;12.93;;;8.60;99.90;;;;;;6239223;23;20382;-95
2021/10/31 02:07:57;;;;;;;13.80;12.50;;;8.50;99.90;;;;;;6238990;23;20480;-92
2021/10/31 02:10:24;;;;;;;12.90;11.63;;;8.50;99.90;;;;;;6238709;23;20646;-93
2021/10/31 02:12:58;;;;;;;11.90;10.80;;;8.40;99.90;;;;;;6240059;23;20895;-93
2021/10/31 02:15:27;;;;;;;12.87;11.67;;;8.40;99.90;;;;;;6227688;23;20405;-92
2021/10/31 02:18:19;;;;;;;14.30;12.90;;;8.40;99.90;;;;;;6240031;22;20396;-93
2021/10/31 02:20:48;;;;;;;13.60;11.60;;;8.30;99.90;;;;;;6240221;23;20394;-92
2021/10/31 02:23:15;;;;;;;12.90;11.77;;;8.30;99.90;;;;;;6237300;23;20707;-92
2021/10/31 02:25:41;;;;;;;11.90;10.70;;;8.30;99.90;;;;;;6235086;23;20454;-92
2021/10/31 02:28:07;;;;;;;12.20;10.97;;;8.20;99.90;;;;;;6233648;23;20398;-93
2021/10/31 02:30:32;;;;;;;12.30;11.00;;;8.10;99.90;;;;;;6235189;23;20549;-92
2021/10/31 02:33:10;;;;;;;12.90;11.07;;;8.10;99.90;;;;;;6233102;23;20170;-92
2021/10/31 02:35:36;;;;;;;11.50;10.40;;;8.00;99.90;;;;;;6235869;23;20224;-93
2021/10/31 02:38:03;;;;;;;11.70;10.50;;;8.00;99.90;;;;;;6235321;23;20730;-93
2021/10/31 02:40:31;;;;;;;11.00;10.00;;;8.00;99.90;;;;;;6234537;23;20170;-93
2021/10/31 02:42:57;;;;;;;10.80;9.70;;;8.00;99.90;;;;;;6234827;23;20393;-92
2021/10/31 02:45:23;;;;;;;11.30;10.20;;;7.90;99.90;;;;;;6233364;23;20401;-93
2021/10/31 02:47:56;;;;;;;10.37;9.37;;;7.90;99.90;;;;;;6232869;23;20167;-92
2021/10/31 02:50:29;;;;;;;9.97;9.07;;;7.90;99.90;;;;;;6234548;23;20191;-92
2021/10/31 02:53:26;;;;;;;8.93;8.13;;;7.90;99.90;;;;;;6235281;23;20511;-92
2021/10/31 02:56:03;;;;;;;9.73;8.73;;;8.00;99.90;;;;;;6232579;23;20405;-92
2021/10/31 02:59:00;;;;;;;10.40;9.10;;;8.00;99.90;;;;;;6234421;23;20389;-92
2021/10/31 03:01:37;;;;;;;8.43;7.70;;;8.00;99.90;;;;;;6236615;22;20394;-92
2021/10/31 03:04:18;;;;;;;9.67;8.80;;;7.90;99.90;;;;;;6236913;22;20390;-92
2021/10/31 03:06:44;;;;;;;10.00;9.10;;;7.90;99.90;;;;;;6242245;23;20791;-93
2021/10/31 03:09:18;;;;;;;11.80;10.60;;;7.80;99.90;;;;;;6235640;22;20436;-91
2021/10/31 03:11:44;;;;;;;11.63;10.43;;;7.80;99.90;;;;;;6233878;23;20753;-91
2021/10/31 03:14:14;;;;;;;14.23;12.90;;;7.80;99.90;;;;;;6235291;23;20609;-92
2021/10/31 03:16:40;;;;;;;12.43;11.20;;;7.80;99.90;;;;;;6235152;23;20509;-92
2021/10/31 03:19:16;;;;;;;13.30;12.00;;;7.80;99.90;;;;;;6235670;23;20450;-92
2021/10/31 03:21:56;;;;;;;11.17;10.07;;;7.80;99.90;;;;;;6235137;22;20162;-91
2021/10/31 03:24:22;;;;;;;10.80;9.70;;;7.70;99.90;;;;;;6232851;23;20697;-92
2021/10/31 03:26:48;;;;;;;11.00;10.00;;;7.60;99.90;;;;;;6233533;23;20163;-92
2021/10/31 03:29:14;;;;;;;10.53;9.43;;;7.50;99.90;;;;;;6232045;23;20190;-91
2021/10/31 03:31:40;;;;;;;9.23;8.33;;;7.50;99.90;;;;;;6231249;23;20400;-92
2021/10/31 03:34:08;;;;;;;9.70;8.50;;;7.50;99.90;;;;;;6232537;23;20731;-92
2021/10/31 03:36:34;;;;;;;10.57;9.47;;;7.60;99.90;;;;;;6231427;23;20398;-92
2021/10/31 03:39:02;;;;;;;10.00;8.77;;;7.50;99.90;;;;;;6233519;23;21144;-92
2021/10/31 03:41:28;;;;;;;9.17;8.37;;;7.50;99.90;;;;;;6231697;23;20167;-91
2021/10/31 03:43:56;;;;;;;10.37;9.30;;;7.60;99.90;;;;;;6232850;23;20466;-91
2021/10/31 03:46:37;;;;;;;9.70;8.70;;;7.60;99.90;;;;;;6231849;23;20529;-91
2021/10/31 03:49:15;;;;;;;11.43;9.77;;;7.60;99.90;;;;;;6232252;23;20801;-92
2021/10/31 03:54:41;;;;;;;10.20;9.20;;;7.60;99.90;;;;;;6232431;22;20881;-91
2021/10/31 03:57:08;;;;;;;9.60;8.40;;;7.70;99.90;;;;;;6233028;22;20386;-91
2021/10/31 03:59:35;;;;;;;10.90;9.43;;;7.70;99.90;;;;;;6233061;23;20694;-91
2021/10/31 04:02:02;;;;;;;9.40;8.50;;;7.70;99.90;;;;;;6232879;23;20393;-92
2021/10/31 04:04:29;;;;;;;17.40;10.27;;;7.70;99.90;;;;;;6233319;23;20409;-92
2021/10/31 04:06:55;;;;;;;10.40;9.27;;;7.70;99.90;;;;;;6233086;23;20765;-93
2021/10/31 04:09:21;;;;;;;9.20;8.30;;;7.70;99.90;;;;;;6233879;22;20430;-93
2021/10/31 04:11:47;;;;;;;9.90;8.90;;;7.70;99.90;;;;;;6232108;23;20468;-93
2021/10/31 04:14:13;;;;;;;12.70;10.10;;;7.80;99.90;;;;;;6231386;23;20166;-92
2021/10/31 04:16:39;;;;;;;10.27;9.20;;;7.90;99.90;;;;;;6231635;23;20456;-93
2021/10/31 04:19:05;;;;;;;10.10;9.20;;;7.80;99.90;;;;;;6233005;23;20218;-93
2021/10/31 04:21:30;;;;;;;11.60;10.50;;;7.70;99.90;;;;;;6230769;23;20741;-93
2021/10/31 04:23:56;;;;;;;9.27;8.47;;;7.60;99.90;;;;;;6232523;23;20173;-93
2021/10/31 04:26:22;;;;;;;10.07;8.43;;;7.50;99.90;;;;;;6233985;23;20188;-92
2021/10/31 04:28:48;;;;;;;9.20;8.30;;;7.40;99.90;;;;;;6232253;23;20189;-93
2021/10/31 04:31:13;;;;;;;9.27;8.37;;;7.30;99.90;;;;;;6232720;23;20330;-93
2021/10/31 04:33:39;;;;;;;10.63;9.60;;;7.20;99.90;;;;;;6232496;23;20155;-93
2021/10/31 04:36:18;;;;;;;11.07;10.00;;;7.20;99.90;;;;;;6241770;23;20226;-91
2021/10/31 04:38:46;;;;;;;12.73;11.43;;;7.40;99.90;;;;;;6233498;23;20915;-93
2021/10/31 04:41:12;;;;;;;12.80;11.47;;;7.40;99.90;;;;;;6231733;23;20440;-92
2021/10/31 04:43:39;;;;;;;12.00;10.90;;;7.50;99.90;;;;;;6228885;23;20393;-93
2021/10/31 04:46:08;;;;;;;11.60;10.50;;;7.60;99.90;;;;;;6237191;23;20668;-92
2021/10/31 04:48:34;;;;;;;13.73;12.37;;;7.70;99.90;;;;;;6236274;23;20421;-92
2021/10/31 04:51:00;;;;;;;11.33;10.23;;;7.70;99.90;;;;;;6240151;23;21078;-93
2021/10/31 04:53:34;;;;;;;11.77;10.67;;;7.80;99.90;;;;;;6236788;23;20398;-93
2021/10/31 04:56:09;;;;;;;11.77;10.60;;;7.80;99.90;;;;;;6238211;23;20498;-94
2021/10/31 04:58:38;;;;;;;11.10;10.10;;;7.80;99.90;;;;;;6237862;23;20397;-94
2021/10/31 05:01:04;;;;;;;10.17;9.17;;;7.80;99.90;;;;;;6213408;23;20404;-94
2021/10/31 05:03:29;;;;;;;10.90;9.90;;;7.70;99.90;;;;;;6237601;23;20414;-92
2021/10/31 05:05:55;;;;;;;9.07;8.20;;;7.70;99.90;;;;;;6236304;23;20394;-92
2021/10/31 05:08:21;;;;;;;9.30;8.50;;;7.70;99.90;;;;;;6237021;23;20412;-93
2021/10/31 05:10:46;;;;;;;10.10;9.10;;;7.70;99.90;;;;;;6237074;23;20194;-93
2021/10/31 05:13:12;;;;;;;11.27;10.07;;;7.70;99.90;;;;;;6237346;23;20606;-93
2021/10/31 05:15:39;;;;;;;11.20;10.17;;;7.60;99.90;;;;;;6236087;23;20503;-92
2021/10/31 05:18:07;;;;;;;10.23;9.33;;;7.50;99.90;;;;;;6235337;23;20171;-92
2021/10/31 05:20:33;;;;;;;11.27;10.20;;;7.50;99.90;;;;;;6235553;23;20394;-93
2021/10/31 05:23:03;;;;;;;11.60;10.50;;;7.50;99.90;;;;;;6237098;23;20913;-93
2021/10/31 05:25:29;;;;;;;11.70;10.50;;;7.40;99.90;;;;;;6236697;23;20173;-92
2021/10/31 05:27:54;;;;;;;12.07;10.77;;;7.30;99.90;;;;;;6238068;23;21062;-92
2021/10/31 05:30:20;;;;;;;11.30;10.10;;;7.20;99.90;;;;;;6236808;23;20196;-92
2021/10/31 05:32:47;;;;;;;11.17;10.03;;;7.20;99.90;;;;;;6237530;23;20159;-93
2021/10/31 05:35:14;;;;;;;11.17;10.07;;;7.30;99.90;;;;;;6232940;23;20643;-92
2021/10/31 05:37:57;;;;;;;12.07;10.90;;;7.40;99.90;;;;;;6238455;22;20384;-91
2021/10/31 05:40:25;;;;;;;11.87;10.87;;;7.40;99.90;;;;;;6237103;23;20165;-92
2021/10/31 05:42:54;;;;;;;12.63;11.00;;;7.30;99.90;;;;;;6237263;23;20405;-92
2021/10/31 05:45:20;;;;;;;11.70;10.50;;;7.30;99.90;;;;;;6234265;23;20405;-92
2021/10/31 05:47:50;;;;;;;10.77;9.77;;;7.20;99.90;;;;;;6232208;23;20393;-92
2021/10/31 05:50:19;;;;;;;12.10;10.00;;;7.20;99.90;;;;;;6231479;23;20444;-93
2021/10/31 05:52:59;;;;;;;10.40;9.40;;;7.20;99.90;;;;;;6233246;23;20966;-93
2021/10/31 05:55:28;;;;;;;10.90;9.90;;;7.20;99.90;;;;;;6233097;23;20402;-92
2021/10/31 05:57:57;;;;;;;12.77;9.80;;;7.20;99.90;;;;;;6232588;23;20794;-92
2021/10/31 06:03:17;;;;;;;10.27;9.30;;;7.20;99.90;;;;;;6231471;23;20374;-90
2021/10/31 06:06:07;;;;;;;10.13;9.13;;;7.30;99.90;;;;;;6237869;23;20415;-90
2021/10/31 06:08:39;;;;;;;11.17;10.07;;;7.30;99.90;;;;;;6233679;23;20176;-92
2021/10/31 06:11:05;;;;;;;11.00;10.00;;;7.40;99.90;;;;;;6207251;23;20472;-92
2021/10/31 06:13:38;;;;;;;13.37;12.07;;;7.50;99.90;;;;;;6234390;23;20398;-92
2021/10/31 06:16:06;;;;;;;14.30;12.90;;;7.60;99.90;;;;;;6232712;23;20399;-93
2021/10/31 06:18:32;;;;;;;12.50;11.20;;;7.50;99.90;;;;;;6232556;23;20705;-92
2021/10/31 06:20:57;;;;;;;11.33;10.07;;;7.50;99.90;;;;;;6232061;23;20422;-91
2021/10/31 06:23:23;;;;;;;11.67;9.53;;;7.50;99.90;;;;;;6231209;23;20185;-92
2021/10/31 06:25:49;;;;;;;10.20;9.20;;;7.60;99.90;;;;;;6231281;23;20270;-92
2021/10/31 06:28:15;;;;;;;9.87;8.97;;;7.60;99.90;;;;;;6231866;23;20172;-91
2021/10/31 06:30:40;;;;;;;12.80;8.97;;;7.60;99.90;;;;;;6230783;23;20198;-92
2021/10/31 06:33:06;;;;;;;9.40;8.30;;;7.50;99.90;;;;;;6233739;23;20257;-92
2021/10/31 06:35:32;;;;;;;9.73;8.80;;;7.50;99.90;;;;;;6235538;23;20515;-93
2021/10/31 06:37:57;;;;;;;9.30;8.40;;;7.60;99.90;;;;;;6234872;23;20170;-93
2021/10/31 06:40:23;;;;;;;9.80;8.83;;;7.70;99.90;;;;;;6235693;23;20265;-92
2021/10/31 06:42:49;;;;;;;8.80;8.00;;;7.70;99.90;;;;;;6235059;23;20521;-92
2021/10/31 06:45:15;;;;;;;10.23;9.33;;;7.80;99.90;;;;;;6235497;23;20244;-92
2021/10/31 06:47:40;;;;;;;12.03;10.20;;;7.80;99.90;;;;;;6236623;23;20166;-93
2021/10/31 06:50:06;;;;;;;9.70;8.80;;;7.70;99.90;;;;;;6210603;23;20237;-92
2021/10/31 06:52:33;;;;;;;10.33;9.03;;;7.70;99.90;;;;;;6235251;23;20175;-92
2021/10/31 06:55:01;;;;;;;10.53;9.10;;;7.80;99.90;;;;;;6234591;23;20470;-92
2021/10/31 06:57:26;;;;;;;9.73;8.83;;;7.90;99.90;;;;;;6237370;22;20386;-90
2021/10/31 06:59:52;;;;;;;9.63;8.73;;;8.00;99.90;;;;;;6234591;23;20540;-91
2021/10/31 07:02:18;;;;;;;9.27;8.47;;;8.20;99.90;;;;;;6232373;23;20622;-91
2021/10/31 07:04:44;;;;;;;11.23;10.20;;;8.30;99.90;;;;;;6229265;23;20194;-91
2021/10/31 07:07:10;;;;;;;10.00;9.00;;;8.30;99.90;;;;;;6231177;23;20629;-89
2021/10/31 07:09:38;;;;;;;8.23;7.53;;;8.50;99.90;;;;;;6231170;22;20696;-89
2021/10/31 07:12:05;;;;;;;14.60;10.50;;;8.70;99.90;;;;;;6255237;22;20505;-88
2021/10/31 07:14:31;;;;;;;11.50;10.40;;;8.80;99.90;;;;;;6232864;23;20418;-89
2021/10/31 07:16:57;;;;;;;13.20;12.00;;;9.00;99.90;;;;;;6231106;23;20398;-88
2021/10/31 07:19:24;;;;;;;12.47;11.30;;;9.00;99.90;;;;;;6230545;23;20258;-87
2021/10/31 07:21:53;;;;;;;10.83;9.83;;;9.20;99.90;;;;;;6203445;23;20402;-88
2021/10/31 07:24:34;;;;;;;10.73;9.73;;;9.20;99.90;;;;;;6231926;23;20405;-93
2021/10/31 07:27:51;;;;;;;10.70;9.70;;;9.40;99.90;;;;;;6208276;23;20393;-90
2021/10/31 09:47:32;;;;;;;5.60;5.10;;;16.00;99.90;;;;;;6181910;23;20442;-86
2021/10/31 09:49:58;;;;;;;5.30;4.80;;;16.60;99.90;;;;;;6163106;23;20443;-87
2021/10/31 09:52:26;;;;;;;4.33;3.93;;;17.20;99.90;;;;;;6137601;23;20458;-86
2021/10/31 09:54:57;;;;;;;5.13;4.67;;;16.90;99.90;;;;;;6138880;23;20383;-87
2021/10/31 09:57:25;;;;;;;5.63;4.90;;;16.60;99.90;;;;;;6137678;23;20481;-87
2021/10/31 09:59:54;;;;;;;4.77;4.40;;;16.40;99.90;;;;;;6114964;23;20721;-86
2021/10/31 10:02:45;;;;;;;6.27;4.00;;;16.30;99.90;;;;;;6175363;23;20394;-87
2021/10/31 10:05:21;;;;;;;5.37;4.87;;;16.70;99.90;;;;;;6145613;23;20399;-86
2021/10/31 10:07:47;;;;;;;5.00;4.67;;;17.30;99.90;;;;;;6145721;23;20698;-87
2021/10/31 10:10:14;;;;;;;4.97;4.33;;;17.80;99.90;;;;;;6139331;23;20466;-86
2021/10/31 10:12:41;;;;;;;4.57;4.20;;;18.20;99.90;;;;;;6141049;23;20430;-86
2021/10/31 10:15:12;;;;;;;4.73;4.33;;;18.70;99.90;;;;;;6140783;23;20403;-87
2021/10/31 10:20:29;;;;;;;4.10;3.80;;;19.20;99.90;;;;;;6169222;23;20392;-86
2021/10/31 10:23:13;;;;;;;4.17;3.77;;;19.60;99.90;;;;;;6119603;23;20400;-86
2021/10/31 10:25:42;;;;;;;4.40;4.00;;;19.90;99.90;;;;;;6138772;23;20532;-87
2021/10/31 10:28:23;;;;;;;3.43;3.23;;;20.20;98.60;;;;;;6140299;23;20395;-84
2021/10/31 10:30:49;;;;;;;4.03;3.83;;;20.20;98.50;;;;;;6138590;23;20933;-85
2021/10/31 10:33:21;;;;;;;7.10;3.87;;;20.20;99.60;;;;;;6165739;23;20411;-85
2021/10/31 10:35:54;;;;;;;3.37;3.17;;;20.50;97.90;;;;;;6153238;23;20461;-91
2021/10/31 10:38:22;;;;;;;3.70;3.33;;;20.60;98.90;;;;;;6145454;23;20396;-91
2021/10/31 10:40:50;;;;;;;3.50;3.20;;;20.80;98.20;;;;;;6146861;23;20398;-92
2021/10/31 10:43:36;;;;;;;5.07;3.90;;;20.60;96.90;;;;;;6170824;23;20395;-91
2021/10/31 10:46:12;;;;;;;3.40;3.20;;;20.20;98.10;;;;;;6142031;23;20406;-92
2021/10/31 10:48:56;;;;;;;3.63;3.33;;;20.60;96.70;;;;;;6144271;23;20415;-91
2021/10/31 10:51:22;;;;;;;3.53;3.23;;;21.10;96.30;;;;;;6145897;23;20415;-92
2021/10/31 10:54:07;;;;;;;3.70;3.40;;;21.40;96.90;;;;;;6145577;23;20407;-91
2021/10/31 10:56:33;;;;;;;3.13;2.93;;;21.80;95.00;;;;;;6146921;23;20180;-93
2021/10/31 10:59:42;;;;;;;3.30;3.00;;;22.10;94.60;;;;;;6144455;23;20408;-92
2021/10/31 11:02:26;;;;;;;3.87;3.57;;;22.00;95.40;;;;;;6171993;23;20168;-91
2021/10/31 11:05:15;;;;;;;3.40;3.20;;;21.90;95.10;;;;;;6145210;23;20403;-93
2021/10/31 11:07:42;;;;;;;3.80;3.60;;;21.90;95.20;;;;;;6147048;23;20400;-93
2021/10/31 11:10:18;;;;;;;4.13;3.83;;;22.00;95.90;;;;;;6144949;23;20447;-92
2021/10/31 11:12:44;;;;;;;3.73;3.53;;;21.80;95.40;;;;;;6148691;23;20485;-92
2021/10/31 11:15:17;;;;;;;4.57;4.17;;;21.80;96.30;;;;;;6173698;23;20916;-92
2021/10/31 11:17:47;;;;;;;4.10;3.80;;;21.80;95.90;;;;;;6147804;23;20434;-93
2021/10/31 11:20:18;;;;;;;4.13;3.83;;;22.00;95.90;;;;;;6146034;23;20388;-93
2021/10/31 11:22:58;;;;;;;2.97;2.77;;;21.50;95.60;;;;;;6160026;23;20391;-92
2021/10/31 11:25:45;;;;;;;2.93;2.73;;;21.90;95.10;;;;;;6167495;23;20434;-91
2021/10/31 11:28:13;;;;;;;2.83;2.63;;;22.10;93.50;;;;;;6171148;23;20392;-92
2021/10/31 11:30:41;;;;;;;2.80;2.60;;;22.60;91.30;;;;;;6145001;23;20447;-93
2021/10/31 11:33:11;;;;;;;3.10;2.90;;;23.20;90.00;;;;;;6169142;23;20482;-92
2021/10/31 11:35:37;;;;;;;2.60;2.40;;;23.10;86.40;;;;;;6146234;23;20392;-93
2021/10/31 11:38:08;;;;;;;2.30;2.20;;;23.50;87.90;;;;;;6146095;23;20884;-92
2021/10/31 11:40:48;;;;;;;2.83;2.63;;;24.40;86.80;;;;;;6169166;23;20426;-92
2021/10/31 11:43:21;;;;;;;3.50;2.70;;;25.30;86.40;;;;;;6144297;23;20810;-92
2021/10/31 11:45:50;;;;;;;2.57;2.33;;;27.00;81.10;;;;;;6143234;23;20926;-91
2021/10/31 11:48:17;;;;;;;2.93;2.73;;;27.00;79.00;;;;;;6148380;23;20420;-92
2021/10/31 11:51:04;;;;;;;2.53;2.33;;;27.30;78.80;;;;;;6143000;23;20454;-93
2021/10/31 11:53:33;;;;;;;2.20;2.00;;;27.60;75.70;;;;;;6141880;23;20768;-93
2021/10/31 11:56:14;;;;;;;1.97;1.87;;;28.60;70.20;;;;;;6168405;23;20877;-92
2021/10/31 11:58:52;;;;;;;2.17;1.97;;;30.10;65.20;;;;;;6169687;23;20679;-92
2021/10/31 12:01:56;;;;;;;2.47;2.37;;;31.30;59.50;;;;;;6143814;23;20792;-91
2021/10/31 12:04:35;;;;;;;2.30;2.10;;;31.10;57.30;;;;;;6135853;23;20434;-92
2021/10/31 12:07:32;;;;;;;2.87;2.67;;;30.70;56.90;;;;;;6170773;23;20400;-92
2021/10/31 12:09:58;;;;;;;4.30;3.00;;;30.20;57.60;;;;;;6142947;23;20957;-93
2021/10/31 12:12:25;;;;;;;3.00;2.80;;;29.30;59.60;;;;;;6142265;23;20392;-92
2021/10/31 12:14:54;;;;;;;3.40;3.20;;;29.20;58.80;;;;;;6169501;23;20173;-92
2021/10/31 12:17:21;;;;;;;3.20;2.90;;;29.50;58.00;;;;;;6142876;23;20396;-93
2021/10/31 12:19:52;;;;;;;3.10;2.90;;;30.00;57.20;;;;;;6141942;23;20462;-93
2021/10/31 12:22:37;;;;;;;3.50;3.13;;;31.00;56.60;;;;;;6144003;23;20486;-92
2021/10/31 12:25:05;;;;;;;2.67;2.47;;;31.50;51.90;;;;;;6142950;23;20403;-92
2021/10/31 12:27:48;;;;;;;2.80;2.57;;;31.30;52.80;;;;;;6168497;23;20708;-93
2021/10/31 12:30:21;;;;;;;3.00;2.80;;;31.80;51.00;;;;;;6118569;23;21021;-94
2021/10/31 12:32:48;;;;;;;2.67;2.47;;;32.80;50.20;;;;;;6144348;23;20815;-93
2021/10/31 12:35:43;;;;;;;3.07;2.87;;;32.90;50.50;;;;;;6143091;23;20404;-94
2021/10/31 12:38:23;;;;;;;3.00;2.80;;;32.30;50.10;;;;;;6121665;23;20407;-94
2021/10/31 12:41:09;;;;;;;3.00;2.47;;;32.00;50.30;;;;;;6142658;23;20415;-93
2021/10/31 12:43:50;;;;;;;2.33;2.13;;;31.20;50.70;;;;;;6169611;23;20502;-93
2021/10/31 12:46:26;;;;;;;2.33;2.13;;;30.50;51.20;;;;;;6143111;23;20553;-94
2021/10/31 12:48:55;;;;;;;2.40;2.30;;;29.30;51.60;;;;;;6163974;23;20976;-94
2021/10/31 12:52:04;;;;;;;3.77;2.40;;;27.90;54.50;;;;;;6166747;23;20889;-92
2021/10/31 12:57:29;;;;;;;3.00;2.80;;;27.40;54.50;;;;;;6169456;23;20427;-93
2021/10/31 13:00:00;;;;;;;2.13;2.03;;;27.80;54.10;;;;;;6170059;23;20474;-93
2021/10/31 13:02:27;;;;;;;2.10;2.00;;;26.80;57.00;;;;;;6168509;23;20404;-92
2021/10/31 13:05:05;;;;;;;1.90;1.80;;;26.30;55.30;;;;;;6166921;23;20479;-92
2021/10/31 13:07:38;;;;;;;2.40;2.20;;;25.80;54.70;;;;;;6170056;23;20422;-93
2021/10/31 13:10:08;;;;;;;2.90;1.77;;;25.50;53.50;;;;;;6167230;23;20953;-92
2021/10/31 13:12:34;;;;;;;2.50;2.40;;;25.00;53.90;;;;;;6167443;23;20399;-94
2021/10/31 13:15:10;;;;;;;2.43;2.23;;;24.80;55.70;;;;;;6167591;23;20499;-92
2021/10/31 13:18:02;;;;;;;2.80;1.90;;;24.60;56.80;;;;;;6170451;23;20171;-92
2021/10/31 13:20:31;;;;;;;1.80;1.70;;;23.90;59.80;;;;;;6167594;23;20393;-92
2021/10/31 13:23:09;;;;;;;1.67;1.57;;;23.00;58.60;;;;;;6167748;23;20400;-93
2021/10/31 13:25:55;;;;;;;1.87;1.70;;;22.70;60.90;;;;;;6167828;23;20423;-92
2021/10/31 13:28:26;;;;;;;1.80;1.70;;;22.80;59.40;;;;;;6168633;23;20399;-92
2021/10/31 13:31:00;;;;;;;1.60;1.50;;;22.80;57.50;;;;;;6168082;23;20475;-92
2021/10/31 13:33:42;;;;;;;2.80;1.60;;;22.40;61.10;;;;;;6169437;23;20599;-91
2021/10/31 13:36:08;;;;;;;1.53;1.43;;;22.00;62.20;;;;;;6169325;23;20891;-92
2021/10/31 13:38:53;;;;;;;2.07;1.80;;;21.60;63.80;;;;;;6165233;23;20400;-92
2021/10/31 13:41:22;;;;;;;1.70;1.60;;;21.60;63.90;;;;;;6169413;23;20163;-93
2021/10/31 13:43:47;;;;;;;1.57;1.30;;;21.40;66.30;;;;;;6171756;23;20391;-93
2021/10/31 13:46:17;;;;;;;4.43;1.60;;;21.40;65.80;;;;;;6173278;23;20450;-94
2021/10/31 13:49:10;;;;;;;1.60;1.50;;;21.40;66.10;;;;;;6150306;23;20415;-93
2021/10/31 13:51:38;;;;;;;1.57;1.47;;;21.40;66.50;;;;;;6181421;23;20495;-96
2021/10/31 16:11:48;;;;;;;2.33;2.20;;;15.20;98.90;;;;;;6203428;22;20461;-95
2021/10/31 16:45:57;;;;;;;3.47;2.60;;;13.50;99.90;;;;;;6170690;22;20456;-92
2021/10/31 16:48:28;;;;;;;3.60;2.73;;;13.40;99.90;;;;;;6174561;23;20399;-92
2021/10/31 16:50:56;;;;;;;2.40;2.20;;;13.30;99.90;;;;;;6150200;23;21109;-93
2021/10/31 16:53:26;;;;;;;4.53;2.57;;;13.20;99.90;;;;;;6174563;23;20406;-93
2021/10/31 16:56:04;;;;;;;2.80;2.60;;;13.20;99.90;;;;;;6174684;23;20437;-91
2021/10/31 16:58:29;;;;;;;2.70;2.40;;;13.10;99.90;;;;;;6173849;23;20395;-91
2021/10/31 17:00:55;;;;;;;5.43;2.53;;;13.00;99.90;;;;;;6174501;23;20723;-92
2021/10/31 17:03:21;;;;;;;2.83;2.53;;;13.00;99.90;;;;;;6177054;23;20167;-92
2021/10/31 17:05:47;;;;;;;2.80;2.50;;;12.90;99.90;;;;;;6174621;23;20264;-92
2021/10/31 17:08:17;;;;;;;2.43;2.23;;;12.90;99.90;;;;;;6173543;23;20402;-92
2021/10/31 17:10:48;;;;;;;2.93;2.73;;;12.80;99.90;;;;;;6149092;23;20450;-91
2021/10/31 17:13:17;;;;;;;3.67;2.70;;;12.70;99.90;;;;;;6200315;23;20770;-92
2021/10/31 17:15:43;;;;;;;4.50;2.70;;;12.70;99.90;;;;;;6173861;23;20693;-91
2021/10/31 17:18:08;;;;;;;4.03;2.43;;;12.60;99.90;;;;;;6176022;23;20399;-92
2021/10/31 17:20:34;;;;;;;3.00;2.70;;;12.50;99.90;;;;;;6176234;23;20168;-92
2021/10/31 17:23:00;;;;;;;6.00;3.00;;;12.50;99.90;;;;;;6174807;23;20243;-91
2021/10/31 17:25:29;;;;;;;3.03;2.70;;;12.40;99.90;;;;;;6177472;23;20864;-91
2021/10/31 17:27:57;;;;;;;2.87;2.60;;;12.40;99.90;;;;;;6176784;23;20167;-91
2021/10/31 17:30:23;;;;;;;2.90;2.37;;;12.40;99.90;;;;;;6175324;23;20769;-90
2021/10/31 17:32:48;;;;;;;12.70;8.87;;;12.30;99.90;;;;;;6175269;23;20395;-91
2021/10/31 17:35:14;;;;;;;35.17;25.93;;;12.20;99.90;;;;;;6175029;23;20457;-90
2021/10/31 17:37:40;;;;;;;23.17;16.80;;;12.10;99.90;;;;;;6173902;23;20401;-92
2021/10/31 17:40:06;;;;;;;25.37;17.67;;;12.10;99.90;;;;;;6174702;23;20503;-90
2021/10/31 17:42:35;;;;;;;23.83;15.50;;;11.90;99.90;;;;;;6177172;23;20188;-91
2021/10/31 17:45:02;;;;;;;23.83;16.60;;;11.80;99.90;;;;;;6178428;23;20395;-91
2021/10/31 17:47:29;;;;;;;16.70;11.17;;;11.90;99.90;;;;;;6178880;23;20239;-90
2021/10/31 17:50:01;;;;;;;9.10;7.47;;;12.00;99.90;;;;;;6174384;23;20445;-91
2021/10/31 17:52:28;;;;;;;10.27;6.80;;;11.90;99.90;;;;;;6173441;23;20767;-90
2021/10/31 17:54:53;;;;;;;5.90;5.10;;;11.90;99.90;;;;;;6173382;23;20439;-92
2021/10/31 17:57:20;;;;;;;4.77;4.17;;;11.80;99.90;;;;;;6175219;23;20398;-92
2021/10/31 17:59:46;;;;;;;5.00;4.00;;;11.80;99.90;;;;;;6175022;23;20175;-90
2021/10/31 18:02:21;;;;;;;4.37;3.97;;;11.80;99.90;;;;;;6176040;23;20484;-91
2021/10/31 18:04:52;;;;;;;4.90;4.40;;;11.70;99.90;;;;;;6204539;23;20174;-91
2021/10/31 18:07:18;;;;;;;5.33;4.83;;;11.60;99.90;;;;;;6191941;23;20401;-90
2021/10/31 18:09:45;;;;;;;4.83;4.17;;;11.60;99.90;;;;;;6177339;23;20750;-91
2021/10/31 18:12:11;;;;;;;4.70;4.30;;;11.60;99.90;;;;;;6171780;23;20918;-91
2021/10/31 18:14:38;;;;;;;4.83;4.20;;;11.50;99.90;;;;;;6173139;23;20399;-91
2021/10/31 18:17:07;;;;;;;5.73;5.07;;;11.40;99.90;;;;;;6173226;23;20869;-91
2021/10/31 18:19:37;;;;;;;5.53;5.00;;;11.30;99.90;;;;;;6171101;23;20875;-92
2021/10/31 18:22:04;;;;;;;5.60;4.70;;;11.40;99.90;;;;;;6173570;23;20550;-92
2021/10/31 18:24:38;;;;;;;5.40;4.90;;;11.50;99.90;;;;;;6199012;23;20400;-91